Time;durP1;ratioP1;P1;durP2;ratioP2;P2;SDS_P1;SDS_P2;PMS_P1;PMS_P2;Temp;Humidity;BMP_temperature;BMP_pressure;BME280_temperature;BME280_humidity;BME280_pressure;Samples;Min_cycle;Max_cycle;Signal;HPM_P1;HPM_P2
2022/03/17 00:00:10;;;;;;;38.60;18.50;;;;;;;-146.84;100.00;65060.63;4984519;28;20037;-77
2022/03/17 00:02:37;;;;;;;43.50;19.88;;;;;;;-146.84;100.00;65060.63;5008944;28;20042;-77
2022/03/17 00:05:04;;;;;;;37.85;19.00;;;;;;;-146.84;100.00;65060.63;5007365;28;20127;-77
2022/03/17 00:07:30;;;;;;;42.13;20.00;;;;;;;-146.84;100.00;65060.63;4993138;28;20038;-76
2022/03/17 00:09:57;;;;;;;45.05;20.45;;;;;;;-146.84;100.00;65060.63;5023122;28;20037;-75
2022/03/17 00:12:23;;;;;;;42.33;20.77;;;;;;;-146.84;100.00;65060.63;5009470;28;20048;-76
2022/03/17 00:14:51;;;;;;;45.40;20.42;;;;;;;-146.84;100.00;65060.63;4999935;28;20096;-76
2022/03/17 00:17:16;;;;;;;43.92;20.55;;;;;;;-146.84;100.00;65060.63;5004055;28;20038;-76
2022/03/17 00:19:42;;;;;;;46.88;21.67;;;;;;;-146.84;100.00;65060.63;5019939;28;20030;-77
2022/03/17 00:22:08;;;;;;;44.08;21.63;;;;;;;-146.84;100.00;65060.63;4994129;28;20044;-77
2022/03/17 00:24:36;;;;;;;55.63;23.48;;;;;;;-146.84;100.00;65060.63;4983503;28;20066;-78
2022/03/17 00:27:05;;;;;;;53.92;23.65;;;;;;;-146.84;100.00;65060.63;4994270;28;20037;-77
2022/03/17 00:29:33;;;;;;;55.08;23.75;;;;;;;-146.84;100.00;65060.63;4995700;28;20034;-77
2022/03/17 00:31:59;;;;;;;55.55;25.63;;;;;;;-146.84;100.00;65060.63;5012155;28;20037;-77
2022/03/17 00:34:25;;;;;;;52.92;24.60;;;;;;;-146.84;100.00;65060.63;4971396;28;20030;-76
2022/03/17 00:36:50;;;;;;;55.67;24.65;;;;;;;-146.84;100.00;65060.63;4986537;28;20044;-76
2022/03/17 00:39:16;;;;;;;54.80;24.98;;;;;;;-146.84;100.00;65060.63;5021924;28;20036;-75
2022/03/17 00:41:43;;;;;;;60.47;26.70;;;;;;;-146.84;100.00;65060.63;4991998;28;20042;-77
2022/03/17 00:44:10;;;;;;;61.03;26.55;;;;;;;-146.84;100.00;65060.63;4999252;28;20046;-76
2022/03/17 00:46:36;;;;;;;70.78;28.65;;;;;;;-146.84;100.00;65060.63;4975967;28;20034;-76
2022/03/17 00:49:03;;;;;;;60.78;27.60;;;;;;;-146.84;100.00;65060.63;5004157;28;20058;-78
2022/03/17 00:51:28;;;;;;;60.00;27.33;;;;;;;-146.84;100.00;65060.63;4980669;28;20048;-76
2022/03/17 00:53:54;;;;;;;63.33;28.00;;;;;;;-146.84;100.00;65060.63;4981263;28;20042;-76
2022/03/17 00:56:20;;;;;;;67.90;30.25;;;;;;;-146.84;100.00;65060.63;5013614;28;20038;-76
2022/03/17 00:58:47;;;;;;;69.85;29.92;;;;;;;-146.84;100.00;65060.63;4980772;28;20069;-77
2022/03/17 01:01:13;;;;;;;68.22;30.83;;;;;;;-146.84;100.00;65060.63;5016199;28;20053;-76
2022/03/17 01:03:40;;;;;;;71.22;31.50;;;;;;;-146.84;100.00;65060.63;5008945;28;20048;-76
2022/03/17 01:06:06;;;;;;;68.13;31.38;;;;;;;-146.84;100.00;65060.63;5026002;28;20044;-76
2022/03/17 01:08:32;;;;;;;74.20;31.83;;;;;;;-146.84;100.00;65060.63;5028394;28;20069;-76
2022/03/17 01:10:58;;;;;;;74.85;30.08;;;;;;;-146.84;100.00;65060.63;4995985;28;20046;-76
2022/03/17 01:13:23;;;;;;;76.95;33.38;;;;;;;-146.84;100.00;65060.63;5011548;28;20018;-78
2022/03/17 01:15:49;;;;;;;75.25;32.92;;;;;;;-146.84;100.00;65060.63;5006285;28;20100;-77
2022/03/17 01:18:15;;;;;;;81.57;34.83;;;;;;;-146.84;100.00;65060.63;4996482;28;20133;-76
2022/03/17 01:20:41;;;;;;;77.10;33.45;;;;;;;-146.84;100.00;65060.63;4989022;28;20042;-80
2022/03/17 01:23:08;;;;;;;79.45;34.00;;;;;;;-146.84;100.00;65060.63;5014318;28;20034;-78
2022/03/17 01:25:33;;;;;;;84.35;36.08;;;;;;;-146.84;100.00;65060.63;4997739;28;20480;-77
2022/03/17 01:27:59;;;;;;;81.07;35.22;;;;;;;-146.84;100.00;65060.63;5016415;28;20033;-80
2022/03/17 01:30:26;;;;;;;77.72;35.35;;;;;;;-146.84;100.00;65060.63;5017236;28;20041;-80
2022/03/17 01:32:52;;;;;;;85.28;36.58;;;;;;;-146.84;100.00;65060.63;5012554;28;20542;-79
2022/03/17 01:35:17;;;;;;;85.80;36.60;;;;;;;-146.84;100.00;65060.63;4992622;28;20030;-77
2022/03/17 01:37:43;;;;;;;80.85;35.40;;;;;;;-146.84;100.00;65060.63;5007638;28;20506;-77
2022/03/17 01:40:09;;;;;;;83.05;35.28;;;;;;;-146.84;100.00;65060.63;4997643;28;20030;-78
2022/03/17 01:42:35;;;;;;;81.68;36.85;;;;;;;-146.84;100.00;65060.63;4998195;28;20111;-77
2022/03/17 01:45:02;;;;;;;83.40;37.00;;;;;;;-146.84;100.00;65060.63;4999451;28;20033;-76
2022/03/17 01:47:28;;;;;;;85.40;36.83;;;;;;;-146.84;100.00;65060.63;5011753;28;20041;-79
2022/03/17 01:49:59;;;;;;;90.45;37.13;;;;;;;-146.84;100.00;65060.63;4992216;28;20129;-79
2022/03/17 01:52:26;;;;;;;86.22;38.10;;;;;;;-146.84;100.00;65060.63;4998376;28;20037;-79
2022/03/17 01:54:53;;;;;;;79.45;36.40;;;;;;;-146.84;100.00;65060.63;4997649;28;20037;-79
2022/03/17 01:57:20;;;;;;;88.38;38.60;;;;;;;-146.84;100.00;65060.63;4996619;28;20041;-80
2022/03/17 01:59:47;;;;;;;83.32;37.60;;;;;;;-146.84;100.00;65060.63;4998399;28;20389;-76
2022/03/17 02:02:13;;;;;;;86.22;39.90;;;;;;;-146.84;100.00;65060.63;4998858;28;20326;-80
2022/03/17 02:04:41;;;;;;;83.70;37.53;;;;;;;-146.84;100.00;65060.63;4998421;28;20080;-80
2022/03/17 02:07:07;;;;;;;82.57;37.50;;;;;;;-146.84;100.00;65060.63;5014199;28;20115;-81
2022/03/17 02:09:34;;;;;;;86.93;38.92;;;;;;;-146.84;100.00;65060.63;4994923;28;20125;-81
2022/03/17 02:15:06;;;;;;;85.13;38.38;;;;;;;-146.84;100.00;65060.63;5010149;28;20057;-78
2022/03/17 02:17:33;;;;;;;85.15;37.33;;;;;;;-146.84;100.00;65060.63;4993663;28;20042;-81
2022/03/17 02:20:01;;;;;;;89.47;39.97;;;;;;;-146.84;100.00;65060.63;4996903;28;20076;-75
2022/03/17 02:22:28;;;;;;;80.20;37.67;;;;;;;-146.84;100.00;65060.63;5012797;28;20037;-79
2022/03/17 02:27:41;;;;;;;79.28;38.35;;;;;;;-146.84;100.00;65060.63;4991087;28;20045;-78
2022/03/17 02:30:10;;;;;;;88.28;39.15;;;;;;;-146.84;100.00;65060.63;4982332;28;20052;-78
2022/03/17 02:32:36;;;;;;;89.22;39.70;;;;;;;-146.84;100.00;65060.63;5013348;28;20030;-78
2022/03/17 02:35:09;;;;;;;90.43;40.67;;;;;;;-146.84;100.00;65060.63;4999730;28;20316;-76
2022/03/17 02:37:35;;;;;;;85.72;39.53;;;;;;;-146.84;100.00;65060.63;4987395;28;20045;-78
2022/03/17 02:40:04;;;;;;;89.75;39.50;;;;;;;-146.84;100.00;65060.63;5006491;28;20032;-79
2022/03/17 02:42:30;;;;;;;90.10;40.33;;;;;;;-146.84;100.00;65060.63;5013743;28;20559;-79
2022/03/17 02:45:00;;;;;;;89.43;40.60;;;;;;;-146.84;100.00;65060.63;4995380;28;20037;-77
2022/03/17 02:47:26;;;;;;;84.45;40.25;;;;;;;-146.84;100.00;65060.63;4998568;28;20061;-78
2022/03/17 02:49:55;;;;;;;84.63;40.88;;;;;;;-146.84;100.00;65060.63;5006463;28;20464;-78
2022/03/17 02:52:29;;;;;;;88.03;40.38;;;;;;;-146.84;100.00;65060.63;5012046;28;20408;-78
2022/03/17 02:54:56;;;;;;;84.35;40.78;;;;;;;-146.84;100.00;65060.63;5010909;28;20046;-78
2022/03/17 02:57:21;;;;;;;85.18;40.75;;;;;;;-146.84;100.00;65060.63;5007594;28;20037;-79
2022/03/17 02:59:48;;;;;;;86.20;40.22;;;;;;;-146.84;100.00;65060.63;4980079;28;20030;-77
2022/03/17 03:02:15;;;;;;;86.57;41.45;;;;;;;-146.84;100.00;65060.63;5011154;28;20045;-78
2022/03/17 03:04:41;;;;;;;89.22;42.08;;;;;;;-146.84;100.00;65060.63;4994879;28;20108;-78
2022/03/17 03:07:06;;;;;;;86.80;41.15;;;;;;;-146.84;100.00;65060.63;4977737;28;20125;-77
2022/03/17 03:09:33;;;;;;;88.68;42.20;;;;;;;-146.84;100.00;65060.63;5004115;28;20192;-76
2022/03/17 03:12:00;;;;;;;86.47;42.13;;;;;;;-146.84;100.00;65060.63;5009274;28;20084;-81
2022/03/17 03:14:26;;;;;;;93.10;44.03;;;;;;;-146.84;100.00;65060.63;4994501;28;20042;-78
2022/03/17 03:16:51;;;;;;;86.03;41.72;;;;;;;-146.84;100.00;65060.63;5007189;28;20038;-77
2022/03/17 03:19:17;;;;;;;84.30;41.10;;;;;;;-146.84;100.00;65060.63;4997458;28;20045;-74
2022/03/17 03:21:46;;;;;;;85.70;41.40;;;;;;;-146.84;100.00;65060.63;5015003;28;20117;-80
2022/03/17 03:24:13;;;;;;;87.32;42.15;;;;;;;-146.84;100.00;65060.63;4995607;28;20088;-78
2022/03/17 03:26:40;;;;;;;88.95;41.40;;;;;;;-146.84;100.00;65060.63;5013201;28;20038;-77
2022/03/17 03:31:38;;;;;;;85.90;42.03;;;;;;;-146.84;100.00;65060.63;4987756;28;20038;-76
2022/03/17 03:34:04;;;;;;;80.18;40.13;;;;;;;-146.84;100.00;65060.63;5009688;28;20033;-78
2022/03/17 03:39:14;;;;;;;85.88;40.80;;;;;;;-146.84;100.00;65060.63;5002880;28;20120;-78
2022/03/17 03:41:39;;;;;;;89.05;42.47;;;;;;;-146.84;100.00;65060.63;5013594;28;20134;-80
2022/03/17 03:44:05;;;;;;;82.68;41.42;;;;;;;-146.84;100.00;65060.63;4993886;28;20065;-78
2022/03/17 03:46:31;;;;;;;83.97;42.03;;;;;;;-146.84;100.00;65060.63;5004688;28;20378;-77
2022/03/17 03:48:56;;;;;;;84.55;40.85;;;;;;;-146.84;100.00;65060.63;5008657;28;20720;-79
2022/03/17 03:51:22;;;;;;;87.07;42.97;;;;;;;-146.84;100.00;65060.63;4996350;28;20061;-77
2022/03/17 03:56:31;;;;;;;86.18;42.13;;;;;;;-146.84;100.00;65060.63;5004571;28;20034;-80
2022/03/17 03:59:01;;;;;;;85.93;41.78;;;;;;;-146.84;100.00;65060.63;5007595;28;20190;-79
2022/03/17 04:01:27;;;;;;;89.18;43.88;;;;;;;-146.84;100.00;65060.63;5012735;28;20452;-78
2022/03/17 04:03:54;;;;;;;86.47;43.72;;;;;;;-146.84;100.00;65060.63;4990437;28;20099;-77
2022/03/17 04:06:20;;;;;;;85.80;41.85;;;;;;;-146.84;100.00;65060.63;4995784;28;20041;-78
2022/03/17 04:08:45;;;;;;;87.13;43.17;;;;;;;-146.84;100.00;65060.63;4993864;28;20053;-80
2022/03/17 04:11:11;;;;;;;82.65;43.13;;;;;;;-146.84;100.00;65060.63;5025648;28;20025;-76
2022/03/17 04:13:36;;;;;;;82.75;42.67;;;;;;;-146.84;100.00;65060.63;5009257;28;20448;-78
2022/03/17 04:16:02;;;;;;;83.95;43.42;;;;;;;-146.84;100.00;65060.63;4992203;28;20034;-77
2022/03/17 04:18:27;;;;;;;86.43;42.50;;;;;;;-146.84;100.00;65060.63;5004225;28;20046;-77
2022/03/17 04:20:53;;;;;;;84.72;42.35;;;;;;;-146.84;100.00;65060.63;5010276;28;20040;-79
2022/03/17 04:23:18;;;;;;;92.40;43.95;;;;;;;-146.84;100.00;65060.63;4994837;28;20042;-77
2022/03/17 04:25:44;;;;;;;87.93;42.63;;;;;;;-146.84;100.00;65060.63;5019988;28;20508;-78
2022/03/17 04:28:09;;;;;;;89.20;43.47;;;;;;;-146.84;100.00;65060.63;4976528;28;20034;-77
2022/03/17 04:30:36;;;;;;;85.15;42.40;;;;;;;-146.84;100.00;65060.63;4993229;28;20052;-76
2022/03/17 04:33:01;;;;;;;84.53;43.22;;;;;;;-146.84;100.00;65060.63;5009390;28;20584;-77
2022/03/17 04:35:28;;;;;;;87.28;42.78;;;;;;;-146.84;100.00;65060.63;4984860;28;20060;-78
2022/03/17 04:37:53;;;;;;;84.20;43.10;;;;;;;-146.84;100.00;65060.63;5001193;28;20396;-78
2022/03/17 04:40:19;;;;;;;84.82;43.10;;;;;;;-146.84;100.00;65060.63;5009679;28;20052;-76
2022/03/17 04:42:45;;;;;;;85.25;43.90;;;;;;;-146.84;100.00;65060.63;5019638;28;20399;-77
2022/03/17 04:45:10;;;;;;;80.72;40.83;;;;;;;-146.84;100.00;65060.63;4991282;28;20069;-78
2022/03/17 04:47:36;;;;;;;83.60;42.60;;;;;;;-146.84;100.00;65060.63;5017733;28;20137;-78
2022/03/17 04:50:03;;;;;;;84.32;43.58;;;;;;;-146.84;100.00;65060.63;4992892;28;20045;-77
2022/03/17 04:55:12;;;;;;;82.50;42.17;;;;;;;-146.84;100.00;65060.63;5013137;28;20037;-78
2022/03/17 04:57:38;;;;;;;83.18;43.78;;;;;;;-146.84;100.00;65060.63;5019769;28;20041;-79
2022/03/17 05:00:04;;;;;;;83.22;41.83;;;;;;;-146.84;100.00;65060.63;4996895;28;20037;-79
2022/03/17 05:02:30;;;;;;;88.97;44.03;;;;;;;-146.84;100.00;65060.63;5026076;28;20145;-79
2022/03/17 05:04:56;;;;;;;79.75;41.85;;;;;;;-146.84;100.00;65060.63;4989504;28;20113;-79
2022/03/17 05:07:22;;;;;;;81.68;43.70;;;;;;;-146.84;100.00;65060.63;4997033;28;20846;-79
2022/03/17 05:09:47;;;;;;;85.80;43.90;;;;;;;-146.84;100.00;65060.63;4994112;28;20031;-77
2022/03/17 05:12:13;;;;;;;85.88;44.42;;;;;;;-146.84;100.00;65060.63;4996817;28;20045;-79
2022/03/17 05:14:38;;;;;;;89.95;44.00;;;;;;;-146.84;100.00;65060.63;4997070;28;20042;-78
2022/03/17 05:17:04;;;;;;;83.65;44.13;;;;;;;-146.84;100.00;65060.63;4996438;28;20038;-78
2022/03/17 05:19:30;;;;;;;82.60;43.40;;;;;;;-146.84;100.00;65060.63;4993786;28;20061;-78
2022/03/17 05:21:56;;;;;;;82.95;44.38;;;;;;;-146.84;100.00;65060.63;5010838;28;20072;-79
2022/03/17 05:24:21;;;;;;;87.03;45.92;;;;;;;-146.84;100.00;65060.63;5012639;28;20084;-78
2022/03/17 05:26:47;;;;;;;84.25;43.22;;;;;;;-146.84;100.00;65060.63;5013346;28;20045;-78
2022/03/17 05:29:12;;;;;;;84.32;43.35;;;;;;;-146.84;100.00;65060.63;4998898;28;20034;-79
2022/03/17 05:31:38;;;;;;;84.40;43.92;;;;;;;-146.84;100.00;65060.63;4979417;28;20754;-80
2022/03/17 05:34:04;;;;;;;83.78;44.00;;;;;;;-146.84;100.00;65060.63;5011872;28;20042;-79
2022/03/17 05:36:29;;;;;;;78.93;42.40;;;;;;;-146.84;100.00;65060.63;5012993;28;20030;-80
2022/03/17 05:38:55;;;;;;;82.55;43.45;;;;;;;-146.84;100.00;65060.63;4996886;28;20061;-79
2022/03/17 05:41:22;;;;;;;82.13;43.85;;;;;;;-146.84;100.00;65060.63;4998106;28;20080;-80
2022/03/17 05:43:47;;;;;;;85.35;45.85;;;;;;;-146.84;100.00;65060.63;4981007;28;20033;-78
2022/03/17 05:46:14;;;;;;;84.35;42.90;;;;;;;-146.84;100.00;65060.63;5011446;28;20092;-79
2022/03/17 05:48:40;;;;;;;85.65;45.53;;;;;;;-146.84;100.00;65060.63;5010502;28;20040;-79
2022/03/17 05:51:06;;;;;;;85.63;44.97;;;;;;;-146.84;100.00;65060.63;4995049;28;20029;-79
2022/03/17 05:53:31;;;;;;;87.03;45.10;;;;;;;-146.84;100.00;65060.63;4990701;28;20092;-79
2022/03/17 05:55:57;;;;;;;80.45;44.65;;;;;;;-146.84;100.00;65060.63;4998640;28;20107;-80
2022/03/17 05:58:23;;;;;;;88.90;45.30;;;;;;;-146.84;100.00;65060.63;4997721;28;20038;-78
2022/03/17 06:00:48;;;;;;;82.53;43.63;;;;;;;-146.84;100.00;65060.63;4993398;28;20042;-78
2022/03/17 06:03:14;;;;;;;80.60;43.42;;;;;;;-146.84;100.00;65060.63;4992475;28;20041;-80
2022/03/17 06:05:40;;;;;;;83.63;45.72;;;;;;;-146.84;100.00;65060.63;4980924;28;20050;-80
2022/03/17 06:08:05;;;;;;;81.22;45.50;;;;;;;-146.84;100.00;65060.63;4981846;28;20097;-78
2022/03/17 06:10:33;;;;;;;83.32;45.58;;;;;;;-146.84;100.00;65060.63;5010646;28;20037;-80
2022/03/17 06:13:00;;;;;;;78.47;43.92;;;;;;;-146.84;100.00;65060.63;4980228;28;20152;-79
2022/03/17 06:15:26;;;;;;;80.85;43.28;;;;;;;-146.84;100.00;65060.63;4993301;28;20045;-79
2022/03/17 06:17:57;;;;;;;78.40;43.47;;;;;;;-146.84;100.00;65060.63;5008619;28;20042;-80
2022/03/17 06:20:26;;;;;;;79.13;43.30;;;;;;;-146.84;100.00;65060.63;4999976;28;20041;-79
2022/03/17 06:22:54;;;;;;;76.13;43.25;;;;;;;-146.84;100.00;65060.63;4995966;28;20049;-78
2022/03/17 06:25:22;;;;;;;73.70;42.47;;;;;;;-146.84;100.00;65060.63;4998905;28;20105;-75
2022/03/17 06:27:49;;;;;;;80.63;43.42;;;;;;;-146.84;100.00;65060.63;4980999;28;20037;-77
2022/03/17 06:30:20;;;;;;;80.82;43.03;;;;;;;-146.84;100.00;65060.63;4995814;28;20054;-80
2022/03/17 06:32:46;;;;;;;72.47;42.28;;;;;;;-146.84;100.00;65060.63;5010416;28;20041;-77
2022/03/17 06:35:17;;;;;;;76.72;42.67;;;;;;;-146.84;100.00;65060.63;4991918;28;20104;-80
2022/03/17 06:37:44;;;;;;;76.25;42.38;;;;;;;-146.84;100.00;65060.63;5012992;28;20456;-79
2022/03/17 06:40:10;;;;;;;77.43;42.97;;;;;;;-146.84;100.00;65060.63;5012892;28;20022;-80
2022/03/17 06:42:36;;;;;;;75.10;42.67;;;;;;;-146.84;100.00;65060.63;4979517;28;20042;-77
2022/03/17 06:45:02;;;;;;;76.10;43.28;;;;;;;-146.84;100.00;65060.63;4996310;28;20389;-78
2022/03/17 06:47:28;;;;;;;72.85;42.15;;;;;;;-146.84;100.00;65060.63;5002064;28;20101;-78
2022/03/17 06:49:53;;;;;;;74.13;43.85;;;;;;;-146.84;100.00;65060.63;5009092;28;20034;-78
2022/03/17 06:52:20;;;;;;;77.28;42.88;;;;;;;-146.84;100.00;65060.63;5013212;28;20424;-78
2022/03/17 06:54:46;;;;;;;76.07;43.42;;;;;;;-146.84;100.00;65060.63;5009038;28;20117;-79
2022/03/17 06:57:21;;;;;;;74.82;43.55;;;;;;;-146.84;100.00;65060.63;5012936;28;20053;-77
2022/03/17 06:59:48;;;;;;;77.03;44.10;;;;;;;-146.84;100.00;65060.63;5012961;28;20049;-77
2022/03/17 07:02:14;;;;;;;81.75;44.58;;;;;;;-146.84;100.00;65060.63;5010331;28;20048;-77
2022/03/17 07:04:40;;;;;;;79.07;44.70;;;;;;;-146.84;100.00;65060.63;4993200;28;20439;-79
2022/03/17 07:07:06;;;;;;;83.00;47.88;;;;;;;-146.84;100.00;65060.63;5011507;28;21237;-79
2022/03/17 07:09:32;;;;;;;77.32;43.40;;;;;;;-146.84;100.00;65060.63;4996200;28;20476;-79
2022/03/17 07:11:58;;;;;;;78.07;44.63;;;;;;;-146.84;100.00;65060.63;4995826;28;20046;-79
2022/03/17 07:14:23;;;;;;;75.97;44.03;;;;;;;-146.84;100.00;65060.63;5010119;28;20042;-78
2022/03/17 07:16:49;;;;;;;76.40;44.15;;;;;;;-146.84;100.00;65060.63;4984873;28;20038;-79
2022/03/17 07:19:15;;;;;;;72.40;43.47;;;;;;;-146.84;100.00;65060.63;4996177;28;20026;-79
2022/03/17 07:21:42;;;;;;;84.85;47.92;;;;;;;-146.84;100.00;65060.63;4990221;28;20109;-80
2022/03/17 07:24:09;;;;;;;79.97;45.63;;;;;;;-146.84;100.00;65060.63;4994146;28;20045;-78
2022/03/17 07:26:40;;;;;;;78.85;44.90;;;;;;;-146.84;100.00;65060.63;5011991;28;20175;-79
2022/03/17 07:29:07;;;;;;;79.27;44.53;;;;;;;-146.84;100.00;65060.63;4994984;28;20041;-81
2022/03/17 07:31:33;;;;;;;78.15;44.28;;;;;;;-146.84;100.00;65060.63;4979771;28;20272;-78
2022/03/17 07:34:00;;;;;;;77.45;44.65;;;;;;;-146.84;100.00;65060.63;4990954;28;20064;-81
2022/03/17 07:36:27;;;;;;;77.40;45.63;;;;;;;-146.84;100.00;65060.63;4992450;28;20440;-79
2022/03/17 07:38:57;;;;;;;79.20;45.72;;;;;;;-146.84;100.00;65060.63;5005885;28;20065;-80
2022/03/17 07:41:24;;;;;;;78.88;44.50;;;;;;;-146.84;100.00;65060.63;5013611;28;20049;-79
2022/03/17 07:43:49;;;;;;;79.82;46.38;;;;;;;-146.84;100.00;65060.63;5011037;28;20068;-80
2022/03/17 07:46:38;;;;;;;75.13;43.35;;;;;;;-146.84;100.00;65060.63;5025847;28;20393;-82
2022/03/17 07:49:22;;;;;;;73.40;43.95;;;;;;;-146.84;100.00;65060.63;4980233;28;20121;-79
2022/03/17 07:51:48;;;;;;;74.30;44.63;;;;;;;-146.84;100.00;65060.63;4978533;28;20048;-81
2022/03/17 07:54:14;;;;;;;81.53;46.08;;;;;;;-146.84;100.00;65060.63;5025966;28;20466;-79
2022/03/17 07:56:41;;;;;;;77.07;45.55;;;;;;;-146.84;100.00;65060.63;5015527;28;20097;-79
2022/03/17 07:59:08;;;;;;;74.55;44.50;;;;;;;-146.84;100.00;65060.63;4994410;28;20491;-81
2022/03/17 08:01:34;;;;;;;79.30;45.17;;;;;;;-146.84;100.00;65060.63;5006800;28;20141;-79
2022/03/17 08:04:00;;;;;;;79.03;46.03;;;;;;;-146.84;100.00;65060.63;5003625;28;20125;-80
2022/03/17 08:06:26;;;;;;;78.30;45.85;;;;;;;-146.84;100.00;65060.63;4991311;28;20038;-78
2022/03/17 08:08:52;;;;;;;77.18;45.70;;;;;;;-146.84;100.00;65060.63;5007918;28;20046;-79
2022/03/17 08:11:18;;;;;;;76.97;45.00;;;;;;;-146.84;100.00;65060.63;4995136;28;20046;-81
2022/03/17 08:13:44;;;;;;;73.22;44.83;;;;;;;-146.84;100.00;65060.63;4978046;28;20038;-81
2022/03/17 08:16:10;;;;;;;80.35;44.83;;;;;;;-146.84;100.00;65060.63;5010629;28;20091;-80
2022/03/17 08:18:37;;;;;;;76.20;45.58;;;;;;;-146.84;100.00;65060.63;4987639;28;20504;-80
2022/03/17 08:21:03;;;;;;;77.43;47.45;;;;;;;-146.84;100.00;65060.63;5026525;28;20061;-81
2022/03/17 08:23:29;;;;;;;78.25;44.72;;;;;;;-146.84;100.00;65060.63;5010441;28;20038;-81
2022/03/17 08:25:54;;;;;;;76.93;45.42;;;;;;;-146.84;100.00;65060.63;5005177;28;20097;-80
2022/03/17 08:28:20;;;;;;;73.10;43.60;;;;;;;-146.84;100.00;65060.63;5008675;28;20054;-82
2022/03/17 08:30:47;;;;;;;74.32;44.80;;;;;;;-146.84;100.00;65060.63;5012893;28;20036;-79
2022/03/17 08:33:14;;;;;;;73.80;43.40;;;;;;;-146.84;100.00;65060.63;4973277;28;20034;-81
2022/03/17 08:35:41;;;;;;;81.97;45.33;;;;;;;-146.84;100.00;65060.63;4994817;28;20469;-79
2022/03/17 08:38:07;;;;;;;75.53;43.47;;;;;;;-146.84;100.00;65060.63;5012276;28;20462;-81
2022/03/17 08:40:34;;;;;;;75.03;43.58;;;;;;;-146.84;100.00;65060.63;4994163;28;20046;-79
2022/03/17 08:42:59;;;;;;;74.32;44.00;;;;;;;-146.84;100.00;65060.63;4995856;28;20040;-81
2022/03/17 08:50:54;;;;;;;74.43;43.70;;;;;;;-146.84;100.00;65060.63;4991652;28;20034;-81
2022/03/17 08:53:20;;;;;;;75.35;44.22;;;;;;;-146.84;100.00;65060.63;5012037;28;20042;-81
2022/03/17 08:55:45;;;;;;;73.32;43.88;;;;;;;-146.84;100.00;65060.63;5007886;28;20038;-79
2022/03/17 08:58:12;;;;;;;74.22;42.40;;;;;;;-146.84;100.00;65060.63;5007651;28;20033;-81
2022/03/17 09:00:37;;;;;;;72.72;43.97;;;;;;;-146.84;100.00;65060.63;4997839;28;20512;-79
2022/03/17 09:03:04;;;;;;;68.47;41.90;;;;;;;-146.84;100.00;65060.63;4981118;28;20092;-79
2022/03/17 09:05:33;;;;;;;74.65;44.92;;;;;;;-146.84;100.00;65060.63;4977506;28;20042;-82
2022/03/17 09:08:00;;;;;;;69.18;43.30;;;;;;;-146.84;100.00;65060.63;5012077;28;20273;-80
2022/03/17 09:10:26;;;;;;;73.70;43.58;;;;;;;-146.84;100.00;65060.63;4994790;28;20030;-81
2022/03/17 09:12:57;;;;;;;74.28;43.35;;;;;;;-146.84;100.00;65060.63;5028715;28;20052;-81
2022/03/17 09:15:30;;;;;;;74.80;44.45;;;;;;;-146.84;100.00;65060.63;4992163;28;20521;-80
2022/03/17 09:17:56;;;;;;;71.63;45.10;;;;;;;-146.84;100.00;65060.63;5004531;28;20046;-80
2022/03/17 09:20:22;;;;;;;67.80;43.10;;;;;;;-146.84;100.00;65060.63;5009104;28;20030;-81
2022/03/17 09:22:49;;;;;;;75.78;43.92;;;;;;;-146.84;100.00;65060.63;4999980;28;20076;-80
2022/03/17 09:25:15;;;;;;;76.30;45.03;;;;;;;-146.84;100.00;65060.63;5009854;28;20132;-80
2022/03/17 09:27:40;;;;;;;76.40;45.53;;;;;;;-146.84;100.00;65060.63;5014941;28;20038;-79
2022/03/17 09:30:06;;;;;;;72.40;44.72;;;;;;;-146.84;100.00;65060.63;4992865;28;20040;-81
2022/03/17 09:32:32;;;;;;;77.25;44.97;;;;;;;-146.84;100.00;65060.63;4994811;28;20043;-80
2022/03/17 09:34:59;;;;;;;73.80;45.97;;;;;;;-146.84;100.00;65060.63;5029252;28;20056;-80
2022/03/17 09:37:25;;;;;;;77.50;45.75;;;;;;;-146.84;100.00;65060.63;4995546;28;20455;-81
2022/03/17 09:39:51;;;;;;;77.75;47.38;;;;;;;-146.84;100.00;65060.63;4998121;28;20037;-81
2022/03/17 09:42:20;;;;;;;78.57;46.13;;;;;;;-146.84;100.00;65060.63;4990249;28;20418;-81
2022/03/17 09:44:53;;;;;;;73.40;45.75;;;;;;;-146.84;100.00;65060.63;5013580;28;20042;-80
2022/03/17 09:47:21;;;;;;;77.38;47.22;;;;;;;-146.84;100.00;65060.63;4997810;28;20046;-81
2022/03/17 09:49:49;;;;;;;77.10;47.05;;;;;;;-146.84;100.00;65060.63;4982553;28;20087;-78
2022/03/17 09:52:20;;;;;;;77.60;46.65;;;;;;;-146.84;100.00;65060.63;4997804;28;20028;-79
2022/03/17 09:54:46;;;;;;;76.82;47.50;;;;;;;-146.84;100.00;65060.63;4997495;28;20508;-82
2022/03/17 09:57:16;;;;;;;79.63;47.20;;;;;;;-146.84;100.00;65060.63;4993908;28;20034;-81
2022/03/17 09:59:44;;;;;;;79.35;48.67;;;;;;;-146.84;100.00;65060.63;4979323;28;20117;-81
2022/03/17 10:02:13;;;;;;;78.88;48.90;;;;;;;-146.84;100.00;65060.63;4974377;28;20042;-82
2022/03/17 10:04:39;;;;;;;83.20;48.85;;;;;;;-146.84;100.00;65060.63;5011396;28;20610;-81
2022/03/17 10:07:07;;;;;;;77.00;47.33;;;;;;;-146.84;100.00;65060.63;4990974;28;20033;-81
2022/03/17 10:09:33;;;;;;;82.18;49.35;;;;;;;-146.84;100.00;65060.63;4970648;28;20113;-79
2022/03/17 10:12:09;;;;;;;80.50;48.28;;;;;;;-146.84;100.00;65060.63;5011889;28;20038;-82
2022/03/17 10:14:42;;;;;;;81.28;48.38;;;;;;;-146.84;100.00;65060.63;4991863;28;20132;-81
2022/03/17 10:17:28;;;;;;;89.55;49.78;;;;;;;-146.84;100.00;65060.63;4995434;28;20029;-81
2022/03/17 10:20:15;;;;;;;82.78;49.63;;;;;;;-146.84;100.00;65060.63;4994269;28;20077;-81
2022/03/17 10:22:51;;;;;;;80.25;49.15;;;;;;;-146.84;100.00;65060.63;5006206;28;20507;-82
2022/03/17 10:25:19;;;;;;;80.30;47.85;;;;;;;-146.84;100.00;65060.63;4974638;28;20135;-80
2022/03/17 10:27:46;;;;;;;84.25;50.38;;;;;;;-146.84;100.00;65060.63;5012133;28;20149;-81
2022/03/17 10:30:22;;;;;;;85.82;50.70;;;;;;;-146.84;100.00;65060.63;4981180;28;20021;-82
2022/03/17 10:32:56;;;;;;;86.95;50.08;;;;;;;-146.84;100.00;65060.63;4990800;28;20045;-79
2022/03/17 10:35:36;;;;;;;81.90;49.28;;;;;;;-146.84;100.00;65060.63;4998113;28;20069;-81
2022/03/17 10:38:13;;;;;;;84.30;49.75;;;;;;;-146.84;100.00;65060.63;4997517;28;20492;-80
2022/03/17 10:40:39;;;;;;;85.88;49.45;;;;;;;-146.84;100.00;65060.63;5014948;28;20107;-81
2022/03/17 10:43:18;;;;;;;84.97;51.90;;;;;;;-146.84;100.00;65060.63;5016310;28;20042;-79
2022/03/17 10:45:44;;;;;;;84.93;49.40;;;;;;;-146.84;100.00;65060.63;5000258;28;20044;-80
2022/03/17 10:48:10;;;;;;;87.18;52.22;;;;;;;-146.84;100.00;65060.63;4982093;28;20038;-80
2022/03/17 10:50:43;;;;;;;90.57;52.58;;;;;;;-146.84;100.00;65060.63;5020262;28;20030;-81
2022/03/17 10:53:09;;;;;;;;;;;;;;;-146.84;100.00;65060.63;5006979;28;20049;-81
2022/03/17 10:55:36;;;;;;;87.55;49.67;;;;;;;-146.84;100.00;65060.63;5017337;28;19913;-79
2022/03/17 10:58:17;;;;;;;85.60;49.55;;;;;;;-146.84;100.00;65060.63;4989557;28;20089;-77
2022/03/17 11:00:53;;;;;;;88.60;51.75;;;;;;;-146.84;100.00;65060.63;5023797;28;20041;-76
2022/03/17 11:03:21;;;;;;;89.95;52.08;;;;;;;-146.84;100.00;65060.63;5008899;28;20041;-78
2022/03/17 11:05:51;;;;;;;92.78;51.85;;;;;;;-146.84;100.00;65060.63;5032753;28;20052;-77
2022/03/17 11:08:20;;;;;;;92.60;52.33;;;;;;;-146.84;100.00;65060.63;4990554;28;20033;-81
2022/03/17 11:10:47;;;;;;;91.50;51.88;;;;;;;-146.84;100.00;65060.63;4986923;28;20034;-76
2022/03/17 11:13:13;;;;;;;89.18;52.70;;;;;;;-146.84;100.00;65060.63;4994426;28;20072;-82
2022/03/17 11:15:43;;;;;;;86.85;49.67;;;;;;;-146.84;100.00;65060.63;5012274;28;20033;-81